sensor_id;sensor_type;location;lat;lon;timestamp;P1;durP1;ratioP1;P2;durP2;ratioP2
11034;SDS011;5571;48.110;-1.706;2023-04-25T00:00:22;11.93;;;3.83;;
11034;SDS011;5571;48.110;-1.706;2023-04-25T00:02:47;15.10;;;4.17;;
11034;SDS011;5571;48.110;-1.706;2023-04-25T00:05:13;10.53;;;3.90;;
11034;SDS011;5571;48.110;-1.706;2023-04-25T00:07:40;14.47;;;4.50;;
11034;SDS011;5571;48.110;-1.706;2023-04-25T00:10:07;10.10;;;3.73;;
11034;SDS011;5571;48.110;-1.706;2023-04-25T00:12:34;12.37;;;4.10;;
11034;SDS011;5571;48.110;-1.706;2023-04-25T00:15:00;9.37;;;3.73;;
11034;SDS011;5571;48.110;-1.706;2023-04-25T00:17:26;13.27;;;4.23;;
11034;SDS011;5571;48.110;-1.706;2023-04-25T00:19:53;16.23;;;4.23;;
11034;SDS011;5571;48.110;-1.706;2023-04-25T00:22:18;13.03;;;4.93;;
11034;SDS011;5571;48.110;-1.706;2023-04-25T00:24:44;12.17;;;4.77;;
11034;SDS011;5571;48.110;-1.706;2023-04-25T00:27:10;15.53;;;5.53;;
11034;SDS011;5571;48.110;-1.706;2023-04-25T00:29:35;16.10;;;4.63;;
11034;SDS011;5571;48.110;-1.706;2023-04-25T00:32:01;10.20;;;4.50;;
11034;SDS011;5571;48.110;-1.706;2023-04-25T00:34:27;20.13;;;5.07;;
11034;SDS011;5571;48.110;-1.706;2023-04-25T00:36:53;11.33;;;4.33;;
11034;SDS011;5571;48.110;-1.706;2023-04-25T00:39:18;15.53;;;5.20;;
11034;SDS011;5571;48.110;-1.706;2023-04-25T00:41:44;14.20;;;4.33;;
11034;SDS011;5571;48.110;-1.706;2023-04-25T00:44:10;13.23;;;4.13;;
11034;SDS011;5571;48.110;-1.706;2023-04-25T00:46:38;11.40;;;4.57;;
11034;SDS011;5571;48.110;-1.706;2023-04-25T00:49:04;8.37;;;4.17;;
11034;SDS011;5571;48.110;-1.706;2023-04-25T00:51:30;8.07;;;4.23;;
11034;SDS011;5571;48.110;-1.706;2023-04-25T00:53:57;12.27;;;3.90;;
11034;SDS011;5571;48.110;-1.706;2023-04-25T00:56:24;14.20;;;4.10;;
11034;SDS011;5571;48.110;-1.706;2023-04-25T00:58:51;12.53;;;4.10;;
11034;SDS011;5571;48.110;-1.706;2023-04-25T01:01:21;11.83;;;4.10;;
11034;SDS011;5571;48.110;-1.706;2023-04-25T01:03:47;12.97;;;3.93;;
11034;SDS011;5571;48.110;-1.706;2023-04-25T01:06:15;13.00;;;4.40;;
11034;SDS011;5571;48.110;-1.706;2023-04-25T01:08:41;12.70;;;3.90;;
11034;SDS011;5571;48.110;-1.706;2023-04-25T01:11:06;15.63;;;4.17;;
11034;SDS011;5571;48.110;-1.706;2023-04-25T01:13:32;12.37;;;4.00;;
11034;SDS011;5571;48.110;-1.706;2023-04-25T01:15:58;13.30;;;3.83;;
11034;SDS011;5571;48.110;-1.706;2023-04-25T01:18:24;15.40;;;4.77;;
11034;SDS011;5571;48.110;-1.706;2023-04-25T01:20:50;13.53;;;4.27;;
11034;SDS011;5571;48.110;-1.706;2023-04-25T01:23:17;14.00;;;4.40;;
11034;SDS011;5571;48.110;-1.706;2023-04-25T01:25:44;12.93;;;4.13;;
11034;SDS011;5571;48.110;-1.706;2023-04-25T01:28:10;9.30;;;3.97;;
11034;SDS011;5571;48.110;-1.706;2023-04-25T01:30:36;8.67;;;4.30;;
11034;SDS011;5571;48.110;-1.706;2023-04-25T01:33:02;11.07;;;3.97;;
11034;SDS011;5571;48.110;-1.706;2023-04-25T01:35:30;9.97;;;4.60;;
11034;SDS011;5571;48.110;-1.706;2023-04-25T01:37:56;19.63;;;6.90;;
11034;SDS011;5571;48.110;-1.706;2023-04-25T01:40:22;13.23;;;7.50;;
11034;SDS011;5571;48.110;-1.706;2023-04-25T01:42:49;14.07;;;4.77;;
11034;SDS011;5571;48.110;-1.706;2023-04-25T01:45:15;12.87;;;4.20;;
11034;SDS011;5571;48.110;-1.706;2023-04-25T01:47:42;13.43;;;4.70;;
11034;SDS011;5571;48.110;-1.706;2023-04-25T01:50:08;12.63;;;4.87;;
11034;SDS011;5571;48.110;-1.706;2023-04-25T01:52:35;11.87;;;4.13;;
11034;SDS011;5571;48.110;-1.706;2023-04-25T01:55:01;11.47;;;3.93;;
11034;SDS011;5571;48.110;-1.706;2023-04-25T01:57:27;11.37;;;4.43;;
11034;SDS011;5571;48.110;-1.706;2023-04-25T02:00:04;10.33;;;4.13;;
11034;SDS011;5571;48.110;-1.706;2023-04-25T02:02:31;12.43;;;4.50;;
11034;SDS011;5571;48.110;-1.706;2023-04-25T02:04:57;8.90;;;4.10;;
11034;SDS011;5571;48.110;-1.706;2023-04-25T02:07:23;12.23;;;4.87;;
11034;SDS011;5571;48.110;-1.706;2023-04-25T02:09:48;13.00;;;4.57;;
11034;SDS011;5571;48.110;-1.706;2023-04-25T02:12:14;10.57;;;4.03;;
11034;SDS011;5571;48.110;-1.706;2023-04-25T02:14:40;8.23;;;4.10;;
11034;SDS011;5571;48.110;-1.706;2023-04-25T02:17:05;9.60;;;3.97;;
11034;SDS011;5571;48.110;-1.706;2023-04-25T02:19:31;9.63;;;4.03;;
11034;SDS011;5571;48.110;-1.706;2023-04-25T02:21:57;13.47;;;4.30;;
11034;SDS011;5571;48.110;-1.706;2023-04-25T02:24:23;9.33;;;3.97;;
11034;SDS011;5571;48.110;-1.706;2023-04-25T02:26:48;8.37;;;4.23;;
11034;SDS011;5571;48.110;-1.706;2023-04-25T02:29:14;11.90;;;4.20;;
11034;SDS011;5571;48.110;-1.706;2023-04-25T02:31:40;10.73;;;4.50;;
11034;SDS011;5571;48.110;-1.706;2023-04-25T02:34:06;10.20;;;4.37;;
11034;SDS011;5571;48.110;-1.706;2023-04-25T02:36:32;11.70;;;4.57;;
11034;SDS011;5571;48.110;-1.706;2023-04-25T02:38:59;9.57;;;4.13;;
11034;SDS011;5571;48.110;-1.706;2023-04-25T02:41:25;10.60;;;4.47;;
11034;SDS011;5571;48.110;-1.706;2023-04-25T02:43:51;12.77;;;4.53;;
11034;SDS011;5571;48.110;-1.706;2023-04-25T02:46:17;12.93;;;4.67;;
11034;SDS011;5571;48.110;-1.706;2023-04-25T02:48:42;23.03;;;13.63;;
11034;SDS011;5571;48.110;-1.706;2023-04-25T02:51:08;19.20;;;9.30;;
11034;SDS011;5571;48.110;-1.706;2023-04-25T02:53:34;15.20;;;7.23;;
11034;SDS011;5571;48.110;-1.706;2023-04-25T02:56:00;11.93;;;6.60;;
11034;SDS011;5571;48.110;-1.706;2023-04-25T02:58:26;13.83;;;6.23;;
11034;SDS011;5571;48.110;-1.706;2023-04-25T03:00:52;11.07;;;4.97;;
11034;SDS011;5571;48.110;-1.706;2023-04-25T03:03:18;13.00;;;4.63;;
11034;SDS011;5571;48.110;-1.706;2023-04-25T03:05:46;11.50;;;4.40;;
11034;SDS011;5571;48.110;-1.706;2023-04-25T03:08:15;14.63;;;4.53;;
11034;SDS011;5571;48.110;-1.706;2023-04-25T03:10:41;11.93;;;4.07;;
11034;SDS011;5571;48.110;-1.706;2023-04-25T03:13:07;7.50;;;4.20;;
11034;SDS011;5571;48.110;-1.706;2023-04-25T03:15:33;11.10;;;4.53;;
11034;SDS011;5571;48.110;-1.706;2023-04-25T03:17:58;9.00;;;4.07;;
11034;SDS011;5571;48.110;-1.706;2023-04-25T03:20:24;15.30;;;8.53;;
11034;SDS011;5571;48.110;-1.706;2023-04-25T03:22:49;10.27;;;5.23;;
11034;SDS011;5571;48.110;-1.706;2023-04-25T03:25:15;14.50;;;6.10;;
11034;SDS011;5571;48.110;-1.706;2023-04-25T03:27:41;11.67;;;5.90;;
11034;SDS011;5571;48.110;-1.706;2023-04-25T03:30:06;13.60;;;5.03;;
11034;SDS011;5571;48.110;-1.706;2023-04-25T03:32:33;9.00;;;4.53;;
11034;SDS011;5571;48.110;-1.706;2023-04-25T03:34:59;11.33;;;4.63;;
11034;SDS011;5571;48.110;-1.706;2023-04-25T03:37:24;15.27;;;4.40;;
11034;SDS011;5571;48.110;-1.706;2023-04-25T03:39:50;12.43;;;4.83;;
11034;SDS011;5571;48.110;-1.706;2023-04-25T03:42:16;9.50;;;4.20;;
11034;SDS011;5571;48.110;-1.706;2023-04-25T03:44:42;15.87;;;4.97;;
11034;SDS011;5571;48.110;-1.706;2023-04-25T03:47:08;11.40;;;4.13;;
11034;SDS011;5571;48.110;-1.706;2023-04-25T03:49:34;12.07;;;3.97;;
11034;SDS011;5571;48.110;-1.706;2023-04-25T03:52:00;12.63;;;4.57;;
11034;SDS011;5571;48.110;-1.706;2023-04-25T03:54:26;14.57;;;4.27;;
11034;SDS011;5571;48.110;-1.706;2023-04-25T03:56:52;16.53;;;4.30;;
11034;SDS011;5571;48.110;-1.706;2023-04-25T03:59:17;14.67;;;4.07;;
11034;SDS011;5571;48.110;-1.706;2023-04-25T04:01:43;10.00;;;4.10;;
11034;SDS011;5571;48.110;-1.706;2023-04-25T04:04:08;10.23;;;4.17;;
11034;SDS011;5571;48.110;-1.706;2023-04-25T04:06:34;9.90;;;3.90;;
11034;SDS011;5571;48.110;-1.706;2023-04-25T04:09:01;14.60;;;3.93;;
11034;SDS011;5571;48.110;-1.706;2023-04-25T04:11:27;12.10;;;4.53;;
11034;SDS011;5571;48.110;-1.706;2023-04-25T04:13:53;7.27;;;3.80;;
11034;SDS011;5571;48.110;-1.706;2023-04-25T04:16:18;12.90;;;4.33;;
11034;SDS011;5571;48.110;-1.706;2023-04-25T04:18:45;10.97;;;3.67;;
11034;SDS011;5571;48.110;-1.706;2023-04-25T04:21:11;9.87;;;4.63;;
11034;SDS011;5571;48.110;-1.706;2023-04-25T04:23:36;12.47;;;4.77;;
11034;SDS011;5571;48.110;-1.706;2023-04-25T04:26:02;10.33;;;4.00;;
11034;SDS011;5571;48.110;-1.706;2023-04-25T04:28:28;12.27;;;4.33;;
11034;SDS011;5571;48.110;-1.706;2023-04-25T04:30:54;7.77;;;3.80;;
11034;SDS011;5571;48.110;-1.706;2023-04-25T04:33:20;15.77;;;4.57;;
11034;SDS011;5571;48.110;-1.706;2023-04-25T04:35:46;11.33;;;4.20;;
11034;SDS011;5571;48.110;-1.706;2023-04-25T04:38:13;11.57;;;4.50;;
11034;SDS011;5571;48.110;-1.706;2023-04-25T04:40:40;13.93;;;4.50;;
11034;SDS011;5571;48.110;-1.706;2023-04-25T04:43:08;12.47;;;4.20;;
11034;SDS011;5571;48.110;-1.706;2023-04-25T04:45:35;8.50;;;4.40;;
11034;SDS011;5571;48.110;-1.706;2023-04-25T04:48:03;9.50;;;4.57;;
11034;SDS011;5571;48.110;-1.706;2023-04-25T04:50:30;8.63;;;4.40;;
11034;SDS011;5571;48.110;-1.706;2023-04-25T04:52:57;10.27;;;4.30;;
11034;SDS011;5571;48.110;-1.706;2023-04-25T04:55:23;13.10;;;5.33;;
11034;SDS011;5571;48.110;-1.706;2023-04-25T04:57:48;10.87;;;4.80;;
11034;SDS011;5571;48.110;-1.706;2023-04-25T05:00:15;12.53;;;4.37;;
11034;SDS011;5571;48.110;-1.706;2023-04-25T05:02:40;11.77;;;5.13;;
11034;SDS011;5571;48.110;-1.706;2023-04-25T05:05:06;9.27;;;5.27;;
11034;SDS011;5571;48.110;-1.706;2023-04-25T05:07:32;39.40;;;21.27;;
11034;SDS011;5571;48.110;-1.706;2023-04-25T05:09:58;28.00;;;12.47;;
11034;SDS011;5571;48.110;-1.706;2023-04-25T05:12:24;23.37;;;13.80;;
11034;SDS011;5571;48.110;-1.706;2023-04-25T05:14:50;16.00;;;7.00;;
11034;SDS011;5571;48.110;-1.706;2023-04-25T05:17:15;13.27;;;5.17;;
11034;SDS011;5571;48.110;-1.706;2023-04-25T05:19:41;13.47;;;5.13;;
11034;SDS011;5571;48.110;-1.706;2023-04-25T05:22:07;7.97;;;4.50;;
11034;SDS011;5571;48.110;-1.706;2023-04-25T05:24:32;14.00;;;4.83;;
11034;SDS011;5571;48.110;-1.706;2023-04-25T05:26:58;15.53;;;5.00;;
11034;SDS011;5571;48.110;-1.706;2023-04-25T05:29:23;13.17;;;5.10;;
11034;SDS011;5571;48.110;-1.706;2023-04-25T05:31:49;14.50;;;4.90;;
11034;SDS011;5571;48.110;-1.706;2023-04-25T05:34:15;11.43;;;5.07;;
11034;SDS011;5571;48.110;-1.706;2023-04-25T05:36:41;10.73;;;4.83;;
11034;SDS011;5571;48.110;-1.706;2023-04-25T05:39:07;11.40;;;4.77;;
11034;SDS011;5571;48.110;-1.706;2023-04-25T05:41:33;9.73;;;4.70;;
11034;SDS011;5571;48.110;-1.706;2023-04-25T05:43:59;11.23;;;4.87;;
11034;SDS011;5571;48.110;-1.706;2023-04-25T05:46:25;11.23;;;4.87;;
11034;SDS011;5571;48.110;-1.706;2023-04-25T05:48:50;13.73;;;4.80;;
11034;SDS011;5571;48.110;-1.706;2023-04-25T05:51:16;10.43;;;4.70;;
11034;SDS011;5571;48.110;-1.706;2023-04-25T05:53:43;10.03;;;4.67;;
11034;SDS011;5571;48.110;-1.706;2023-04-25T05:56:09;11.87;;;5.30;;
11034;SDS011;5571;48.110;-1.706;2023-04-25T05:58:34;11.43;;;4.77;;
11034;SDS011;5571;48.110;-1.706;2023-04-25T06:01:01;11.57;;;4.60;;
11034;SDS011;5571;48.110;-1.706;2023-04-25T06:03:27;10.67;;;4.73;;
11034;SDS011;5571;48.110;-1.706;2023-04-25T06:05:53;10.33;;;4.70;;
11034;SDS011;5571;48.110;-1.706;2023-04-25T06:08:18;13.43;;;4.73;;
11034;SDS011;5571;48.110;-1.706;2023-04-25T06:10:44;12.27;;;4.93;;
11034;SDS011;5571;48.110;-1.706;2023-04-25T06:13:10;12.23;;;5.07;;
11034;SDS011;5571;48.110;-1.706;2023-04-25T06:15:35;11.33;;;4.80;;
11034;SDS011;5571;48.110;-1.706;2023-04-25T06:18:01;9.80;;;4.87;;
11034;SDS011;5571;48.110;-1.706;2023-04-25T06:20:27;12.20;;;5.33;;
11034;SDS011;5571;48.110;-1.706;2023-04-25T06:22:52;11.97;;;5.20;;
11034;SDS011;5571;48.110;-1.706;2023-04-25T06:25:18;11.53;;;5.07;;
11034;SDS011;5571;48.110;-1.706;2023-04-25T06:27:44;13.60;;;5.20;;
11034;SDS011;5571;48.110;-1.706;2023-04-25T06:30:10;9.00;;;4.90;;
11034;SDS011;5571;48.110;-1.706;2023-04-25T06:32:37;11.03;;;5.50;;
11034;SDS011;5571;48.110;-1.706;2023-04-25T06:35:03;8.53;;;4.70;;
11034;SDS011;5571;48.110;-1.706;2023-04-25T06:37:29;11.67;;;5.23;;
11034;SDS011;5571;48.110;-1.706;2023-04-25T06:39:55;15.40;;;5.33;;
11034;SDS011;5571;48.110;-1.706;2023-04-25T06:42:20;16.07;;;5.23;;
11034;SDS011;5571;48.110;-1.706;2023-04-25T06:44:46;16.03;;;5.80;;
11034;SDS011;5571;48.110;-1.706;2023-04-25T06:47:12;10.47;;;4.97;;
11034;SDS011;5571;48.110;-1.706;2023-04-25T06:49:37;11.57;;;5.37;;
11034;SDS011;5571;48.110;-1.706;2023-04-25T06:52:03;12.10;;;5.43;;
11034;SDS011;5571;48.110;-1.706;2023-04-25T06:54:28;12.10;;;5.17;;
11034;SDS011;5571;48.110;-1.706;2023-04-25T06:56:55;9.93;;;5.13;;
11034;SDS011;5571;48.110;-1.706;2023-04-25T06:59:20;12.57;;;5.30;;
11034;SDS011;5571;48.110;-1.706;2023-04-25T07:01:47;17.40;;;5.23;;
11034;SDS011;5571;48.110;-1.706;2023-04-25T07:04:12;13.53;;;5.20;;
11034;SDS011;5571;48.110;-1.706;2023-04-25T07:06:38;10.93;;;4.73;;
11034;SDS011;5571;48.110;-1.706;2023-04-25T07:09:07;10.60;;;5.23;;
11034;SDS011;5571;48.110;-1.706;2023-04-25T07:11:34;9.97;;;5.30;;
11034;SDS011;5571;48.110;-1.706;2023-04-25T07:14:00;8.90;;;5.20;;
11034;SDS011;5571;48.110;-1.706;2023-04-25T07:16:26;11.87;;;4.90;;
11034;SDS011;5571;48.110;-1.706;2023-04-25T07:18:52;11.47;;;5.40;;
11034;SDS011;5571;48.110;-1.706;2023-04-25T07:21:17;10.00;;;5.20;;
11034;SDS011;5571;48.110;-1.706;2023-04-25T07:23:43;12.37;;;5.40;;
11034;SDS011;5571;48.110;-1.706;2023-04-25T07:26:08;11.73;;;5.47;;
11034;SDS011;5571;48.110;-1.706;2023-04-25T07:28:34;9.93;;;5.80;;
11034;SDS011;5571;48.110;-1.706;2023-04-25T07:31:00;11.87;;;5.43;;
11034;SDS011;5571;48.110;-1.706;2023-04-25T07:33:25;10.70;;;5.50;;
11034;SDS011;5571;48.110;-1.706;2023-04-25T07:35:51;13.03;;;5.03;;
11034;SDS011;5571;48.110;-1.706;2023-04-25T07:38:17;9.13;;;5.30;;
11034;SDS011;5571;48.110;-1.706;2023-04-25T07:40:43;10.87;;;5.60;;
11034;SDS011;5571;48.110;-1.706;2023-04-25T07:43:09;10.43;;;5.40;;
11034;SDS011;5571;48.110;-1.706;2023-04-25T07:45:37;12.30;;;5.60;;
11034;SDS011;5571;48.110;-1.706;2023-04-25T07:48:02;7.93;;;5.60;;
11034;SDS011;5571;48.110;-1.706;2023-04-25T07:50:28;9.03;;;5.47;;
11034;SDS011;5571;48.110;-1.706;2023-04-25T07:52:54;11.63;;;5.30;;
11034;SDS011;5571;48.110;-1.706;2023-04-25T07:55:19;11.37;;;6.10;;
11034;SDS011;5571;48.110;-1.706;2023-04-25T07:57:45;11.10;;;5.60;;
11034;SDS011;5571;48.110;-1.706;2023-04-25T08:00:11;8.57;;;5.30;;
11034;SDS011;5571;48.110;-1.706;2023-04-25T08:02:37;10.67;;;5.57;;
11034;SDS011;5571;48.110;-1.706;2023-04-25T08:05:03;8.70;;;5.70;;
11034;SDS011;5571;48.110;-1.706;2023-04-25T08:07:29;9.30;;;5.33;;
11034;SDS011;5571;48.110;-1.706;2023-04-25T08:09:54;7.43;;;5.40;;
11034;SDS011;5571;48.110;-1.706;2023-04-25T08:12:20;9.50;;;5.57;;
11034;SDS011;5571;48.110;-1.706;2023-04-25T08:14:46;8.53;;;5.20;;
11034;SDS011;5571;48.110;-1.706;2023-04-25T08:17:11;9.80;;;5.07;;
11034;SDS011;5571;48.110;-1.706;2023-04-25T08:19:38;9.03;;;6.17;;
11034;SDS011;5571;48.110;-1.706;2023-04-25T08:22:04;10.13;;;5.50;;
11034;SDS011;5571;48.110;-1.706;2023-04-25T08:24:29;10.97;;;5.23;;
11034;SDS011;5571;48.110;-1.706;2023-04-25T08:26:55;8.03;;;5.07;;
11034;SDS011;5571;48.110;-1.706;2023-04-25T08:29:21;7.13;;;4.93;;
11034;SDS011;5571;48.110;-1.706;2023-04-25T08:31:48;7.07;;;4.43;;
11034;SDS011;5571;48.110;-1.706;2023-04-25T08:34:15;8.70;;;4.70;;
11034;SDS011;5571;48.110;-1.706;2023-04-25T08:36:41;9.37;;;4.73;;
11034;SDS011;5571;48.110;-1.706;2023-04-25T08:39:06;7.00;;;4.33;;
11034;SDS011;5571;48.110;-1.706;2023-04-25T08:41:32;5.20;;;3.60;;
11034;SDS011;5571;48.110;-1.706;2023-04-25T08:43:58;5.53;;;3.73;;
11034;SDS011;5571;48.110;-1.706;2023-04-25T08:46:25;9.63;;;4.50;;
11034;SDS011;5571;48.110;-1.706;2023-04-25T08:48:52;11.23;;;4.43;;
11034;SDS011;5571;48.110;-1.706;2023-04-25T08:51:22;8.70;;;4.50;;
11034;SDS011;5571;48.110;-1.706;2023-04-25T08:53:50;8.60;;;4.07;;
11034;SDS011;5571;48.110;-1.706;2023-04-25T08:56:17;4.97;;;3.87;;
11034;SDS011;5571;48.110;-1.706;2023-04-25T08:58:45;10.17;;;4.00;;
11034;SDS011;5571;48.110;-1.706;2023-04-25T09:01:12;8.13;;;4.07;;
11034;SDS011;5571;48.110;-1.706;2023-04-25T09:03:38;7.97;;;4.07;;
11034;SDS011;5571;48.110;-1.706;2023-04-25T09:06:04;7.33;;;4.50;;
11034;SDS011;5571;48.110;-1.706;2023-04-25T09:08:30;3.87;;;3.47;;
11034;SDS011;5571;48.110;-1.706;2023-04-25T09:10:55;5.23;;;3.87;;
11034;SDS011;5571;48.110;-1.706;2023-04-25T09:13:25;4.83;;;4.00;;
11034;SDS011;5571;48.110;-1.706;2023-04-25T09:15:52;7.40;;;4.13;;
11034;SDS011;5571;48.110;-1.706;2023-04-25T09:20:50;7.70;;;4.57;;
11034;SDS011;5571;48.110;-1.706;2023-04-25T09:23:21;6.37;;;3.97;;
11034;SDS011;5571;48.110;-1.706;2023-04-25T09:25:51;4.90;;;4.00;;
11034;SDS011;5571;48.110;-1.706;2023-04-25T09:28:27;6.53;;;4.73;;
11034;SDS011;5571;48.110;-1.706;2023-04-25T09:30:56;7.13;;;4.67;;
11034;SDS011;5571;48.110;-1.706;2023-04-25T09:33:26;9.70;;;4.75;;
11034;SDS011;5571;48.110;-1.706;2023-04-25T09:35:54;8.40;;;3.77;;
11034;SDS011;5571;48.110;-1.706;2023-04-25T09:38:30;6.33;;;3.90;;
11034;SDS011;5571;48.110;-1.706;2023-04-25T09:40:57;9.07;;;4.00;;
11034;SDS011;5571;48.110;-1.706;2023-04-25T09:43:23;6.23;;;4.13;;
11034;SDS011;5571;48.110;-1.706;2023-04-25T09:45:54;6.90;;;3.97;;
11034;SDS011;5571;48.110;-1.706;2023-04-25T09:48:22;14.40;;;4.50;;
11034;SDS011;5571;48.110;-1.706;2023-04-25T09:51:06;9.00;;;3.73;;
11034;SDS011;5571;48.110;-1.706;2023-04-25T09:53:35;7.67;;;3.40;;
11034;SDS011;5571;48.110;-1.706;2023-04-25T09:56:05;7.30;;;3.60;;
11034;SDS011;5571;48.110;-1.706;2023-04-25T09:58:33;5.70;;;3.47;;
11034;SDS011;5571;48.110;-1.706;2023-04-25T10:01:01;6.17;;;3.50;;
11034;SDS011;5571;48.110;-1.706;2023-04-25T10:03:31;7.30;;;3.87;;
11034;SDS011;5571;48.110;-1.706;2023-04-25T10:06:02;6.30;;;3.40;;
11034;SDS011;5571;48.110;-1.706;2023-04-25T10:08:32;5.33;;;3.80;;
11034;SDS011;5571;48.110;-1.706;2023-04-25T10:11:00;4.93;;;3.10;;
11034;SDS011;5571;48.110;-1.706;2023-04-25T10:13:31;6.80;;;4.40;;
11034;SDS011;5571;48.110;-1.706;2023-04-25T10:15:58;6.37;;;4.03;;
11034;SDS011;5571;48.110;-1.706;2023-04-25T10:18:27;6.90;;;3.50;;
11034;SDS011;5571;48.110;-1.706;2023-04-25T10:20:57;5.00;;;3.07;;
11034;SDS011;5571;48.110;-1.706;2023-04-25T10:23:25;8.90;;;3.30;;
11034;SDS011;5571;48.110;-1.706;2023-04-25T10:25:51;5.00;;;3.17;;
11034;SDS011;5571;48.110;-1.706;2023-04-25T10:28:18;4.23;;;3.50;;
11034;SDS011;5571;48.110;-1.706;2023-04-25T10:31:07;6.63;;;3.47;;
11034;SDS011;5571;48.110;-1.706;2023-04-25T10:36:08;6.07;;;3.73;;
11034;SDS011;5571;48.110;-1.706;2023-04-25T10:38:38;4.63;;;3.67;;
11034;SDS011;5571;48.110;-1.706;2023-04-25T10:41:05;7.37;;;3.33;;
11034;SDS011;5571;48.110;-1.706;2023-04-25T10:46:12;3.73;;;3.00;;
11034;SDS011;5571;48.110;-1.706;2023-04-25T10:48:46;5.17;;;2.90;;
11034;SDS011;5571;48.110;-1.706;2023-04-25T10:53:41;5.57;;;2.67;;
11034;SDS011;5571;48.110;-1.706;2023-04-25T10:56:19;4.77;;;3.23;;
11034;SDS011;5571;48.110;-1.706;2023-04-25T10:58:46;5.50;;;3.43;;
11034;SDS011;5571;48.110;-1.706;2023-04-25T11:01:20;4.47;;;3.10;;
11034;SDS011;5571;48.110;-1.706;2023-04-25T11:03:56;3.67;;;3.30;;
11034;SDS011;5571;48.110;-1.706;2023-04-25T11:06:25;4.77;;;3.10;;
11034;SDS011;5571;48.110;-1.706;2023-04-25T11:09:02;4.50;;;3.10;;
11034;SDS011;5571;48.110;-1.706;2023-04-25T11:11:36;3.30;;;3.00;;
11034;SDS011;5571;48.110;-1.706;2023-04-25T11:14:02;4.57;;;3.20;;
11034;SDS011;5571;48.110;-1.706;2023-04-25T11:16:27;4.77;;;3.40;;
11034;SDS011;5571;48.110;-1.706;2023-04-25T11:18:53;4.17;;;3.20;;
11034;SDS011;5571;48.110;-1.706;2023-04-25T11:21:21;8.07;;;3.30;;
11034;SDS011;5571;48.110;-1.706;2023-04-25T11:23:47;5.83;;;3.17;;
11034;SDS011;5571;48.110;-1.706;2023-04-25T11:26:13;4.27;;;3.23;;
11034;SDS011;5571;48.110;-1.706;2023-04-25T11:28:40;5.40;;;2.97;;
11034;SDS011;5571;48.110;-1.706;2023-04-25T11:31:05;3.70;;;2.73;;
11034;SDS011;5571;48.110;-1.706;2023-04-25T11:33:31;4.97;;;2.60;;
11034;SDS011;5571;48.110;-1.706;2023-04-25T11:35:57;3.60;;;2.43;;
11034;SDS011;5571;48.110;-1.706;2023-04-25T11:38:23;3.70;;;2.60;;
11034;SDS011;5571;48.110;-1.706;2023-04-25T11:40:53;4.63;;;2.60;;
11034;SDS011;5571;48.110;-1.706;2023-04-25T11:43:22;5.40;;;2.90;;
11034;SDS011;5571;48.110;-1.706;2023-04-25T11:45:48;4.80;;;2.77;;
11034;SDS011;5571;48.110;-1.706;2023-04-25T11:48:16;3.37;;;2.97;;
11034;SDS011;5571;48.110;-1.706;2023-04-25T11:50:42;8.50;;;3.17;;
11034;SDS011;5571;48.110;-1.706;2023-04-25T11:53:08;4.13;;;3.10;;
11034;SDS011;5571;48.110;-1.706;2023-04-25T11:55:34;6.17;;;3.30;;
11034;SDS011;5571;48.110;-1.706;2023-04-25T11:58:01;3.80;;;3.40;;
11034;SDS011;5571;48.110;-1.706;2023-04-25T12:00:27;5.43;;;3.87;;
11034;SDS011;5571;48.110;-1.706;2023-04-25T12:02:53;3.63;;;3.27;;
11034;SDS011;5571;48.110;-1.706;2023-04-25T12:05:20;6.07;;;3.80;;
11034;SDS011;5571;48.110;-1.706;2023-04-25T12:07:49;5.63;;;3.43;;
11034;SDS011;5571;48.110;-1.706;2023-04-25T12:10:15;5.40;;;3.20;;
11034;SDS011;5571;48.110;-1.706;2023-04-25T12:12:43;4.73;;;3.10;;
11034;SDS011;5571;48.110;-1.706;2023-04-25T12:15:11;5.40;;;3.90;;
11034;SDS011;5571;48.110;-1.706;2023-04-25T12:17:40;9.00;;;4.00;;
11034;SDS011;5571;48.110;-1.706;2023-04-25T12:20:11;6.53;;;3.33;;
11034;SDS011;5571;48.110;-1.706;2023-04-25T12:22:40;3.93;;;3.13;;
11034;SDS011;5571;48.110;-1.706;2023-04-25T12:25:13;5.53;;;3.60;;
11034;SDS011;5571;48.110;-1.706;2023-04-25T12:28:11;6.83;;;3.57;;
11034;SDS011;5571;48.110;-1.706;2023-04-25T12:33:24;3.70;;;3.30;;
11034;SDS011;5571;48.110;-1.706;2023-04-25T12:35:50;5.37;;;3.10;;
11034;SDS011;5571;48.110;-1.706;2023-04-25T12:38:20;7.00;;;2.80;;
11034;SDS011;5571;48.110;-1.706;2023-04-25T12:40:54;3.50;;;3.20;;
11034;SDS011;5571;48.110;-1.706;2023-04-25T12:43:20;7.17;;;4.00;;
11034;SDS011;5571;48.110;-1.706;2023-04-25T12:45:50;3.63;;;2.80;;
11034;SDS011;5571;48.110;-1.706;2023-04-25T12:48:17;4.40;;;3.07;;
11034;SDS011;5571;48.110;-1.706;2023-04-25T12:50:43;7.77;;;3.50;;
11034;SDS011;5571;48.110;-1.706;2023-04-25T12:53:09;5.07;;;3.40;;
11034;SDS011;5571;48.110;-1.706;2023-04-25T12:55:35;5.73;;;3.77;;
11034;SDS011;5571;48.110;-1.706;2023-04-25T12:58:01;6.70;;;3.40;;
11034;SDS011;5571;48.110;-1.706;2023-04-25T13:00:28;5.47;;;3.43;;
11034;SDS011;5571;48.110;-1.706;2023-04-25T13:02:54;5.73;;;3.53;;
11034;SDS011;5571;48.110;-1.706;2023-04-25T13:05:20;7.10;;;3.23;;
11034;SDS011;5571;48.110;-1.706;2023-04-25T13:07:46;4.00;;;3.30;;
11034;SDS011;5571;48.110;-1.706;2023-04-25T13:10:11;5.37;;;3.97;;
11034;SDS011;5571;48.110;-1.706;2023-04-25T13:12:37;4.57;;;3.80;;
11034;SDS011;5571;48.110;-1.706;2023-04-25T13:15:02;13.90;;;3.73;;
11034;SDS011;5571;48.110;-1.706;2023-04-25T13:17:28;5.37;;;4.00;;
11034;SDS011;5571;48.110;-1.706;2023-04-25T13:19:54;7.40;;;3.70;;
11034;SDS011;5571;48.110;-1.706;2023-04-25T13:22:20;4.30;;;3.30;;
11034;SDS011;5571;48.110;-1.706;2023-04-25T13:24:46;8.97;;;4.23;;
11034;SDS011;5571;48.110;-1.706;2023-04-25T13:27:12;5.70;;;4.17;;
11034;SDS011;5571;48.110;-1.706;2023-04-25T13:29:38;6.60;;;3.50;;
11034;SDS011;5571;48.110;-1.706;2023-04-25T13:32:05;3.40;;;3.10;;
11034;SDS011;5571;48.110;-1.706;2023-04-25T13:34:31;5.23;;;3.50;;
11034;SDS011;5571;48.110;-1.706;2023-04-25T13:36:57;5.33;;;3.37;;
11034;SDS011;5571;48.110;-1.706;2023-04-25T13:39:23;6.40;;;3.57;;
11034;SDS011;5571;48.110;-1.706;2023-04-25T13:41:49;6.67;;;3.77;;
11034;SDS011;5571;48.110;-1.706;2023-04-25T13:44:15;3.87;;;3.23;;
11034;SDS011;5571;48.110;-1.706;2023-04-25T13:46:41;6.83;;;3.60;;
11034;SDS011;5571;48.110;-1.706;2023-04-25T13:49:06;3.20;;;2.80;;
11034;SDS011;5571;48.110;-1.706;2023-04-25T13:51:32;4.23;;;3.50;;
11034;SDS011;5571;48.110;-1.706;2023-04-25T13:53:58;6.03;;;3.40;;
11034;SDS011;5571;48.110;-1.706;2023-04-25T13:56:23;5.20;;;3.93;;
11034;SDS011;5571;48.110;-1.706;2023-04-25T13:58:52;5.03;;;3.63;;
11034;SDS011;5571;48.110;-1.706;2023-04-25T14:01:18;6.53;;;4.60;;
11034;SDS011;5571;48.110;-1.706;2023-04-25T14:03:44;4.97;;;3.27;;
11034;SDS011;5571;48.110;-1.706;2023-04-25T14:06:10;8.03;;;3.20;;
11034;SDS011;5571;48.110;-1.706;2023-04-25T14:08:37;4.90;;;3.20;;
11034;SDS011;5571;48.110;-1.706;2023-04-25T14:11:03;5.73;;;3.30;;
11034;SDS011;5571;48.110;-1.706;2023-04-25T14:13:29;4.20;;;3.40;;
11034;SDS011;5571;48.110;-1.706;2023-04-25T14:15:54;4.90;;;3.37;;
11034;SDS011;5571;48.110;-1.706;2023-04-25T14:18:20;6.00;;;3.50;;
11034;SDS011;5571;48.110;-1.706;2023-04-25T14:20:46;4.50;;;3.50;;
11034;SDS011;5571;48.110;-1.706;2023-04-25T14:23:12;4.47;;;3.07;;
11034;SDS011;5571;48.110;-1.706;2023-04-25T14:25:37;5.50;;;3.30;;
11034;SDS011;5571;48.110;-1.706;2023-04-25T14:28:03;9.33;;;3.47;;
11034;SDS011;5571;48.110;-1.706;2023-04-25T14:30:29;3.30;;;2.93;;
11034;SDS011;5571;48.110;-1.706;2023-04-25T14:32:54;5.73;;;2.80;;
11034;SDS011;5571;48.110;-1.706;2023-04-25T14:35:20;4.07;;;2.90;;
11034;SDS011;5571;48.110;-1.706;2023-04-25T14:37:46;3.53;;;2.80;;
11034;SDS011;5571;48.110;-1.706;2023-04-25T14:40:12;3.67;;;2.70;;
11034;SDS011;5571;48.110;-1.706;2023-04-25T14:42:40;4.47;;;2.90;;
11034;SDS011;5571;48.110;-1.706;2023-04-25T14:45:06;3.90;;;2.97;;
11034;SDS011;5571;48.110;-1.706;2023-04-25T14:47:33;3.93;;;3.00;;
11034;SDS011;5571;48.110;-1.706;2023-04-25T14:50:00;4.40;;;3.50;;